sensor_id;sensor_type;location;lat;lon;timestamp;pressure;altitude;pressure_sealevel;temperature;humidity
3464;BME280;3551;41.578;24.706;2023-10-09T00:00:34;91570.59;;;14.93;73.64
3464;BME280;3551;41.578;24.706;2023-10-09T00:03:27;91578.69;;;15.16;72.59
3464;BME280;3551;41.578;24.706;2023-10-09T00:05:54;91583.53;;;15.25;74.21
3464;BME280;3551;41.578;24.706;2023-10-09T00:08:22;91523.94;;;14.99;74.72
3464;BME280;3551;41.578;24.706;2023-10-09T00:10:58;91592.50;;;15.18;75.07
3464;BME280;3551;41.578;24.706;2023-10-09T00:13:39;91568.63;;;15.20;74.05
3464;BME280;3551;41.578;24.706;2023-10-09T00:16:14;91562.22;;;15.34;75.12
3464;BME280;3551;41.578;24.706;2023-10-09T00:18:49;91521.47;;;15.08;74.43
3464;BME280;3551;41.578;24.706;2023-10-09T00:21:16;91577.88;;;15.42;75.27
3464;BME280;3551;41.578;24.706;2023-10-09T00:23:47;91554.91;;;15.11;75.43
3464;BME280;3551;41.578;24.706;2023-10-09T00:26:18;91545.53;;;15.19;75.95
3464;BME280;3551;41.578;24.706;2023-10-09T00:28:46;91592.06;;;15.46;76.62
3464;BME280;3551;41.578;24.706;2023-10-09T00:31:17;91584.13;;;15.36;76.95
3464;BME280;3551;41.578;24.706;2023-10-09T00:33:53;91526.50;;;15.06;77.90
3464;BME280;3551;41.578;24.706;2023-10-09T00:36:27;91569.16;;;15.11;78.95
3464;BME280;3551;41.578;24.706;2023-10-09T00:38:56;91558.81;;;15.06;78.32
3464;BME280;3551;41.578;24.706;2023-10-09T00:41:37;91548.19;;;14.99;79.63
3464;BME280;3551;41.578;24.706;2023-10-09T00:44:07;91537.28;;;14.56;77.65
3464;BME280;3551;41.578;24.706;2023-10-09T00:46:34;91567.69;;;14.80;77.85
3464;BME280;3551;41.578;24.706;2023-10-09T00:49:04;91555.66;;;14.88;77.54
3464;BME280;3551;41.578;24.706;2023-10-09T00:51:37;91567.25;;;14.85;77.05
3464;BME280;3551;41.578;24.706;2023-10-09T00:54:08;91526.63;;;14.49;77.41
3464;BME280;3551;41.578;24.706;2023-10-09T00:56:40;91587.00;;;15.02;76.97
3464;BME280;3551;41.578;24.706;2023-10-09T00:59:10;91556.66;;;14.98;76.96
3464;BME280;3551;41.578;24.706;2023-10-09T01:01:41;91540.28;;;14.62;77.76
3464;BME280;3551;41.578;24.706;2023-10-09T01:04:14;91556.63;;;14.75;77.07
3464;BME280;3551;41.578;24.706;2023-10-09T01:06:43;91624.59;;;15.09;76.25
3464;BME280;3551;41.578;24.706;2023-10-09T01:09:13;91581.63;;;15.25;76.53
3464;BME280;3551;41.578;24.706;2023-10-09T01:11:42;91571.34;;;14.93;76.64
3464;BME280;3551;41.578;24.706;2023-10-09T01:14:29;91553.94;;;14.75;75.76
3464;BME280;3551;41.578;24.706;2023-10-09T01:16:56;91566.22;;;14.76;76.21
3464;BME280;3551;41.578;24.706;2023-10-09T01:19:26;91605.56;;;14.96;75.77
3464;BME280;3551;41.578;24.706;2023-10-09T01:21:53;91593.59;;;14.97;75.52
3464;BME280;3551;41.578;24.706;2023-10-09T01:24:25;91550.09;;;14.99;75.95
3464;BME280;3551;41.578;24.706;2023-10-09T01:26:53;91580.63;;;15.15;78.27
3464;BME280;3551;41.578;24.706;2023-10-09T01:29:24;91581.56;;;15.05;79.76
3464;BME280;3551;41.578;24.706;2023-10-09T01:31:54;91574.97;;;15.06;80.06
3464;BME280;3551;41.578;24.706;2023-10-09T01:34:22;91599.25;;;14.80;80.22
3464;BME280;3551;41.578;24.706;2023-10-09T01:37:04;91595.03;;;14.79;79.10
3464;BME280;3551;41.578;24.706;2023-10-09T01:39:39;91577.94;;;14.89;79.79
3464;BME280;3551;41.578;24.706;2023-10-09T01:42:08;91622.78;;;15.02;80.37
3464;BME280;3551;41.578;24.706;2023-10-09T01:44:36;91608.63;;;14.95;82.23
3464;BME280;3551;41.578;24.706;2023-10-09T01:47:09;91622.25;;;14.84;84.35
3464;BME280;3551;41.578;24.706;2023-10-09T01:49:39;91634.03;;;14.67;84.47
3464;BME280;3551;41.578;24.706;2023-10-09T01:52:09;91622.59;;;14.59;83.62
3464;BME280;3551;41.578;24.706;2023-10-09T01:54:44;91634.16;;;14.87;84.57
3464;BME280;3551;41.578;24.706;2023-10-09T01:57:13;91632.53;;;14.93;83.86
3464;BME280;3551;41.578;24.706;2023-10-09T01:59:41;91615.91;;;14.71;83.75
3464;BME280;3551;41.578;24.706;2023-10-09T02:02:13;91602.78;;;14.77;84.13
3464;BME280;3551;41.578;24.706;2023-10-09T02:04:52;91613.13;;;14.48;80.39
3464;BME280;3551;41.578;24.706;2023-10-09T02:07:29;91619.78;;;14.70;81.89
3464;BME280;3551;41.578;24.706;2023-10-09T02:10:07;91592.13;;;14.66;82.11
3464;BME280;3551;41.578;24.706;2023-10-09T02:12:47;91659.88;;;14.91;83.34
3464;BME280;3551;41.578;24.706;2023-10-09T02:15:17;91639.19;;;14.85;85.22
3464;BME280;3551;41.578;24.706;2023-10-09T02:18:05;91620.06;;;14.76;84.95
3464;BME280;3551;41.578;24.706;2023-10-09T02:20:44;91653.81;;;14.84;85.39
3464;BME280;3551;41.578;24.706;2023-10-09T02:23:12;91612.97;;;14.62;85.84
3464;BME280;3551;41.578;24.706;2023-10-09T02:25:41;91673.94;;;14.76;85.62
3464;BME280;3551;41.578;24.706;2023-10-09T02:28:09;91649.34;;;14.74;86.09
3464;BME280;3551;41.578;24.706;2023-10-09T02:30:43;91638.88;;;14.49;86.78
3464;BME280;3551;41.578;24.706;2023-10-09T02:33:13;91641.53;;;14.52;87.09
3464;BME280;3551;41.578;24.706;2023-10-09T02:35:44;91673.97;;;14.72;87.94
3464;BME280;3551;41.578;24.706;2023-10-09T02:38:16;91629.47;;;14.64;89.16
3464;BME280;3551;41.578;24.706;2023-10-09T02:40:50;91600.19;;;14.39;88.89
3464;BME280;3551;41.578;24.706;2023-10-09T02:43:43;91607.69;;;14.21;87.68
3464;BME280;3551;41.578;24.706;2023-10-09T02:46:11;91641.28;;;14.43;87.70
3464;BME280;3551;41.578;24.706;2023-10-09T02:48:43;91654.09;;;14.62;88.12
3464;BME280;3551;41.578;24.706;2023-10-09T02:51:17;91654.00;;;14.70;86.90
3464;BME280;3551;41.578;24.706;2023-10-09T02:53:59;91630.81;;;14.15;86.40
3464;BME280;3551;41.578;24.706;2023-10-09T02:56:35;91653.59;;;14.41;86.31
3464;BME280;3551;41.578;24.706;2023-10-09T02:59:06;91625.88;;;14.44;85.93
3464;BME280;3551;41.578;24.706;2023-10-09T03:01:33;91664.47;;;14.64;88.40
3464;BME280;3551;41.578;24.706;2023-10-09T03:04:03;91617.56;;;14.31;88.78
3464;BME280;3551;41.578;24.706;2023-10-09T03:06:31;91665.78;;;14.49;88.88
3464;BME280;3551;41.578;24.706;2023-10-09T03:09:00;91628.28;;;14.38;88.33
3464;BME280;3551;41.578;24.706;2023-10-09T03:11:44;91632.06;;;14.41;88.06
3464;BME280;3551;41.578;24.706;2023-10-09T03:14:12;91650.38;;;14.53;88.74
3464;BME280;3551;41.578;24.706;2023-10-09T03:16:39;91670.50;;;14.41;88.83
3464;BME280;3551;41.578;24.706;2023-10-09T03:19:06;91626.47;;;14.25;89.00
3464;BME280;3551;41.578;24.706;2023-10-09T03:21:33;91652.56;;;14.28;89.07
3464;BME280;3551;41.578;24.706;2023-10-09T03:24:00;91651.81;;;14.27;90.32
3464;BME280;3551;41.578;24.706;2023-10-09T03:26:30;91683.53;;;14.46;90.91
3464;BME280;3551;41.578;24.706;2023-10-09T03:28:59;91673.09;;;14.48;89.78
3464;BME280;3551;41.578;24.706;2023-10-09T03:31:26;91700.28;;;14.57;89.46
3464;BME280;3551;41.578;24.706;2023-10-09T03:33:57;91643.28;;;14.36;89.90
3464;BME280;3551;41.578;24.706;2023-10-09T03:36:24;91658.28;;;14.33;90.10
3464;BME280;3551;41.578;24.706;2023-10-09T03:38:52;91693.38;;;14.56;90.14
3464;BME280;3551;41.578;24.706;2023-10-09T03:41:20;91655.59;;;14.33;90.48
3464;BME280;3551;41.578;24.706;2023-10-09T03:43:49;91678.72;;;14.27;92.02
3464;BME280;3551;41.578;24.706;2023-10-09T03:46:17;91641.97;;;14.14;92.68
3464;BME280;3551;41.578;24.706;2023-10-09T03:48:48;91692.88;;;14.35;93.26
3464;BME280;3551;41.578;24.706;2023-10-09T03:51:15;91690.19;;;14.35;92.92
3464;BME280;3551;41.578;24.706;2023-10-09T03:53:47;91697.91;;;14.33;92.89
3464;BME280;3551;41.578;24.706;2023-10-09T03:56:14;91706.13;;;14.52;92.53
3464;BME280;3551;41.578;24.706;2023-10-09T03:58:44;91703.81;;;14.51;93.15
3464;BME280;3551;41.578;24.706;2023-10-09T04:01:13;91700.34;;;14.54;93.24
3464;BME280;3551;41.578;24.706;2023-10-09T04:03:45;91690.69;;;14.56;93.35
3464;BME280;3551;41.578;24.706;2023-10-09T04:06:12;91691.28;;;14.41;92.98
3464;BME280;3551;41.578;24.706;2023-10-09T04:08:43;91680.47;;;14.44;93.84
3464;BME280;3551;41.578;24.706;2023-10-09T04:11:14;91732.53;;;14.64;93.98
3464;BME280;3551;41.578;24.706;2023-10-09T04:13:48;91704.91;;;14.57;94.26
3464;BME280;3551;41.578;24.706;2023-10-09T04:16:18;91700.41;;;14.50;94.74
3464;BME280;3551;41.578;24.706;2023-10-09T04:19:02;91697.50;;;14.31;94.20
3464;BME280;3551;41.578;24.706;2023-10-09T04:21:37;91702.38;;;14.43;95.38
3464;BME280;3551;41.578;24.706;2023-10-09T04:24:03;91688.72;;;14.27;95.36
3464;BME280;3551;41.578;24.706;2023-10-09T04:26:48;91709.31;;;14.44;95.40
3464;BME280;3551;41.578;24.706;2023-10-09T04:29:23;91709.00;;;14.38;96.12
3464;BME280;3551;41.578;24.706;2023-10-09T04:32:04;91709.63;;;14.49;96.08
3464;BME280;3551;41.578;24.706;2023-10-09T04:34:35;91710.56;;;14.36;95.86
3464;BME280;3551;41.578;24.706;2023-10-09T04:37:03;91687.22;;;14.22;96.00
3464;BME280;3551;41.578;24.706;2023-10-09T04:39:49;91710.56;;;14.36;96.55
3464;BME280;3551;41.578;24.706;2023-10-09T04:42:26;91715.84;;;14.43;95.22
3464;BME280;3551;41.578;24.706;2023-10-09T04:45:04;91738.47;;;14.49;96.14
3464;BME280;3551;41.578;24.706;2023-10-09T04:47:49;91719.75;;;14.38;96.80
3464;BME280;3551;41.578;24.706;2023-10-09T04:50:25;91730.41;;;14.45;97.58
3464;BME280;3551;41.578;24.706;2023-10-09T04:53:31;91714.31;;;14.42;97.12
3464;BME280;3551;41.578;24.706;2023-10-09T04:56:05;91694.47;;;14.25;97.58
3464;BME280;3551;41.578;24.706;2023-10-09T04:58:41;91762.81;;;14.38;97.07
3464;BME280;3551;41.578;24.706;2023-10-09T05:01:09;91774.84;;;14.23;98.58
3464;BME280;3551;41.578;24.706;2023-10-09T05:03:44;91727.34;;;14.06;97.56
3464;BME280;3551;41.578;24.706;2023-10-09T05:06:13;91764.25;;;14.46;96.98
3464;BME280;3551;41.578;24.706;2023-10-09T05:09:09;91728.53;;;14.42;97.06
3464;BME280;3551;41.578;24.706;2023-10-09T05:11:38;91752.19;;;14.58;96.97
3464;BME280;3551;41.578;24.706;2023-10-09T05:14:20;91751.13;;;14.52;97.38
3464;BME280;3551;41.578;24.706;2023-10-09T05:17:05;91746.50;;;14.52;96.81
3464;BME280;3551;41.578;24.706;2023-10-09T05:19:42;91777.34;;;14.78;94.78
3464;BME280;3551;41.578;24.706;2023-10-09T05:22:22;91726.38;;;14.64;90.80
3464;BME280;3551;41.578;24.706;2023-10-09T05:25:02;91747.47;;;14.99;83.89
3464;BME280;3551;41.578;24.706;2023-10-09T05:27:40;91746.22;;;15.07;87.38
3464;BME280;3551;41.578;24.706;2023-10-09T05:30:22;91745.06;;;15.89;81.20
3464;BME280;3551;41.578;24.706;2023-10-09T05:32:55;91781.44;;;16.70;76.83
3464;BME280;3551;41.578;24.706;2023-10-09T05:35:24;91754.19;;;17.39;72.94
3464;BME280;3551;41.578;24.706;2023-10-09T05:38:08;91766.38;;;18.16;68.90
3464;BME280;3551;41.578;24.706;2023-10-09T05:40:50;91747.47;;;18.61;65.71
3464;BME280;3551;41.578;24.706;2023-10-09T05:43:30;91749.13;;;18.99;64.35
3464;BME280;3551;41.578;24.706;2023-10-09T05:46:19;91735.06;;;19.04;61.49
3464;BME280;3551;41.578;24.706;2023-10-09T05:49:03;91768.88;;;19.41;61.81
3464;BME280;3551;41.578;24.706;2023-10-09T05:51:45;91779.66;;;19.83;60.79
3464;BME280;3551;41.578;24.706;2023-10-09T05:54:20;91765.22;;;19.86;59.65
3464;BME280;3551;41.578;24.706;2023-10-09T05:57:09;91737.78;;;19.84;57.96
3464;BME280;3551;41.578;24.706;2023-10-09T05:59:50;91738.38;;;19.37;61.19
3464;BME280;3551;41.578;24.706;2023-10-09T06:02:34;91763.19;;;19.23;60.03
3464;BME280;3551;41.578;24.706;2023-10-09T06:05:18;91753.75;;;18.58;61.74
3464;BME280;3551;41.578;24.706;2023-10-09T06:08:00;91776.56;;;18.73;63.12
3464;BME280;3551;41.578;24.706;2023-10-09T06:10:35;91762.09;;;18.63;57.86
3464;BME280;3551;41.578;24.706;2023-10-09T06:13:07;91767.47;;;18.34;63.10
3464;BME280;3551;41.578;24.706;2023-10-09T06:15:54;91776.09;;;17.97;64.69
3464;BME280;3551;41.578;24.706;2023-10-09T06:18:46;91784.41;;;18.06;65.03
3464;BME280;3551;41.578;24.706;2023-10-09T06:21:34;91770.69;;;18.13;63.79
3464;BME280;3551;41.578;24.706;2023-10-09T06:24:27;91776.09;;;18.13;64.32
3464;BME280;3551;41.578;24.706;2023-10-09T06:38:20;91776.75;;;17.33;66.64
3464;BME280;3551;41.578;24.706;2023-10-09T06:40:50;91798.19;;;17.40;60.59
3464;BME280;3551;41.578;24.706;2023-10-09T06:43:35;91799.59;;;17.48;62.58
3464;BME280;3551;41.578;24.706;2023-10-09T06:46:16;91803.97;;;17.62;63.81
3464;BME280;3551;41.578;24.706;2023-10-09T06:48:57;91798.63;;;17.58;63.07
3464;BME280;3551;41.578;24.706;2023-10-09T06:51:25;91799.59;;;17.68;63.76
3464;BME280;3551;41.578;24.706;2023-10-09T06:54:07;91798.47;;;17.45;62.60
3464;BME280;3551;41.578;24.706;2023-10-09T06:56:43;91813.03;;;17.71;61.72
3464;BME280;3551;41.578;24.706;2023-10-09T06:59:28;91824.88;;;17.77;63.55
3464;BME280;3551;41.578;24.706;2023-10-09T07:02:07;91818.25;;;17.62;63.63
3464;BME280;3551;41.578;24.706;2023-10-09T07:04:51;91824.84;;;17.41;62.97
3464;BME280;3551;41.578;24.706;2023-10-09T07:07:21;91824.00;;;17.44;62.96
3464;BME280;3551;41.578;24.706;2023-10-09T07:09:52;91827.59;;;17.38;63.66
3464;BME280;3551;41.578;24.706;2023-10-09T07:12:37;91830.78;;;17.13;64.57
3464;BME280;3551;41.578;24.706;2023-10-09T07:15:09;91821.84;;;17.16;64.96
3464;BME280;3551;41.578;24.706;2023-10-09T07:17:54;91819.03;;;17.04;65.30
3464;BME280;3551;41.578;24.706;2023-10-09T07:20:21;91824.03;;;17.25;64.99
3464;BME280;3551;41.578;24.706;2023-10-09T07:23:04;91853.47;;;17.39;66.62
3464;BME280;3551;41.578;24.706;2023-10-09T07:25:44;91849.25;;;17.18;68.66
3464;BME280;3551;41.578;24.706;2023-10-09T07:28:24;91850.78;;;17.39;68.67
3464;BME280;3551;41.578;24.706;2023-10-09T07:31:02;91841.97;;;16.72;73.22
3464;BME280;3551;41.578;24.706;2023-10-09T07:33:30;91838.66;;;16.65;75.61
3464;BME280;3551;41.578;24.706;2023-10-09T07:36:17;91855.72;;;16.58;76.86
3464;BME280;3551;41.578;24.706;2023-10-09T07:38:56;91848.44;;;16.55;77.38
3464;BME280;3551;41.578;24.706;2023-10-09T07:41:31;91857.34;;;16.75;77.29
3464;BME280;3551;41.578;24.706;2023-10-09T07:44:09;91859.41;;;17.11;76.24
3464;BME280;3551;41.578;24.706;2023-10-09T07:47:01;91865.44;;;16.99;74.49
3464;BME280;3551;41.578;24.706;2023-10-09T07:49:55;91866.91;;;16.60;76.00
3464;BME280;3551;41.578;24.706;2023-10-09T07:52:24;91887.22;;;16.42;78.03
3464;BME280;3551;41.578;24.706;2023-10-09T07:54:51;91868.03;;;16.36;79.67
3464;BME280;3551;41.578;24.706;2023-10-09T07:57:28;91873.31;;;16.43;79.27
3464;BME280;3551;41.578;24.706;2023-10-09T08:00:05;91860.81;;;16.29;79.29
3464;BME280;3551;41.578;24.706;2023-10-09T08:03:00;91879.31;;;16.31;80.11
3464;BME280;3551;41.578;24.706;2023-10-09T08:05:28;91876.44;;;16.15;81.22
3464;BME280;3551;41.578;24.706;2023-10-09T08:08:00;91871.09;;;16.11;81.52
3464;BME280;3551;41.578;24.706;2023-10-09T08:10:52;91877.38;;;16.05;81.16
3464;BME280;3551;41.578;24.706;2023-10-09T08:13:46;91889.03;;;15.98;81.05
3464;BME280;3551;41.578;24.706;2023-10-09T08:16:22;91898.91;;;15.82;81.90
3464;BME280;3551;41.578;24.706;2023-10-09T08:18:50;91864.78;;;15.68;81.73
3464;BME280;3551;41.578;24.706;2023-10-09T08:21:18;91875.19;;;15.69;82.39
3464;BME280;3551;41.578;24.706;2023-10-09T08:24:07;91863.81;;;15.55;82.48
3464;BME280;3551;41.578;24.706;2023-10-09T08:26:54;91899.66;;;15.82;81.92
3464;BME280;3551;41.578;24.706;2023-10-09T08:29:44;91884.38;;;15.72;82.16
3464;BME280;3551;41.578;24.706;2023-10-09T08:32:13;91859.34;;;15.71;81.52
3464;BME280;3551;41.578;24.706;2023-10-09T08:35:05;91876.59;;;15.77;81.37
3464;BME280;3551;41.578;24.706;2023-10-09T08:37:44;91871.75;;;15.65;81.74
3464;BME280;3551;41.578;24.706;2023-10-09T08:40:16;91887.59;;;15.63;82.21
3464;BME280;3551;41.578;24.706;2023-10-09T08:42:52;91884.84;;;15.67;82.66
3464;BME280;3551;41.578;24.706;2023-10-09T08:45:23;91877.09;;;15.69;82.48
3464;BME280;3551;41.578;24.706;2023-10-09T08:47:53;91873.38;;;15.59;81.44
3464;BME280;3551;41.578;24.706;2023-10-09T08:50:20;91896.16;;;15.55;81.58
3464;BME280;3551;41.578;24.706;2023-10-09T08:52:48;91886.78;;;15.66;81.28
3464;BME280;3551;41.578;24.706;2023-10-09T08:55:17;91906.69;;;15.76;81.27
3464;BME280;3551;41.578;24.706;2023-10-09T08:57:44;91872.75;;;15.79;79.72
3464;BME280;3551;41.578;24.706;2023-10-09T09:00:16;91893.13;;;15.80;79.62
3464;BME280;3551;41.578;24.706;2023-10-09T09:02:48;91885.59;;;15.34;81.13
3464;BME280;3551;41.578;24.706;2023-10-09T09:05:19;91886.22;;;15.14;81.71
3464;BME280;3551;41.578;24.706;2023-10-09T09:07:46;91888.47;;;15.19;82.22
3464;BME280;3551;41.578;24.706;2023-10-09T09:10:14;91883.66;;;15.00;82.33
3464;BME280;3551;41.578;24.706;2023-10-09T09:12:47;91885.94;;;15.05;82.45
3464;BME280;3551;41.578;24.706;2023-10-09T09:15:19;91897.06;;;15.07;82.47
3464;BME280;3551;41.578;24.706;2023-10-09T09:17:48;91889.47;;;15.33;81.84
3464;BME280;3551;41.578;24.706;2023-10-09T09:20:20;91898.16;;;15.47;81.05
3464;BME280;3551;41.578;24.706;2023-10-09T09:22:54;91894.09;;;15.32;80.74
3464;BME280;3551;41.578;24.706;2023-10-09T09:25:23;91894.88;;;14.95;81.20
3464;BME280;3551;41.578;24.706;2023-10-09T09:27:56;91866.75;;;15.00;81.37
3464;BME280;3551;41.578;24.706;2023-10-09T09:30:35;91903.31;;;15.35;80.38
3464;BME280;3551;41.578;24.706;2023-10-09T09:33:18;91887.72;;;15.15;80.50
3464;BME280;3551;41.578;24.706;2023-10-09T09:35:57;91909.53;;;15.62;79.40
3464;BME280;3551;41.578;24.706;2023-10-09T09:38:26;91912.31;;;15.58;78.63
3464;BME280;3551;41.578;24.706;2023-10-09T09:40:56;91895.47;;;15.13;79.78
3464;BME280;3551;41.578;24.706;2023-10-09T09:43:23;91898.41;;;15.26;78.78
3464;BME280;3551;41.578;24.706;2023-10-09T09:45:53;91899.16;;;15.27;79.79
3464;BME280;3551;41.578;24.706;2023-10-09T09:48:24;91905.09;;;15.45;78.11
3464;BME280;3551;41.578;24.706;2023-10-09T09:50:52;91908.88;;;15.54;78.21
3464;BME280;3551;41.578;24.706;2023-10-09T09:53:19;91898.94;;;15.14;78.35
3464;BME280;3551;41.578;24.706;2023-10-09T09:55:54;91889.91;;;15.28;78.63
3464;BME280;3551;41.578;24.706;2023-10-09T09:58:28;91861.59;;;15.12;78.84
3464;BME280;3551;41.578;24.706;2023-10-09T10:01:09;91881.06;;;15.61;77.71
3464;BME280;3551;41.578;24.706;2023-10-09T10:03:46;91873.94;;;15.74;76.52
3464;BME280;3551;41.578;24.706;2023-10-09T10:06:30;91884.44;;;15.68;76.14
3464;BME280;3551;41.578;24.706;2023-10-09T10:08:59;91886.72;;;15.70;76.18
3464;BME280;3551;41.578;24.706;2023-10-09T10:11:41;91885.13;;;15.42;76.22
3464;BME280;3551;41.578;24.706;2023-10-09T10:14:09;91879.47;;;15.30;76.97
3464;BME280;3551;41.578;24.706;2023-10-09T10:17:04;91875.25;;;15.32;77.21
3464;BME280;3551;41.578;24.706;2023-10-09T10:20:02;91872.44;;;15.39;76.89
3464;BME280;3551;41.578;24.706;2023-10-09T10:22:51;91828.63;;;15.01;76.13
3464;BME280;3551;41.578;24.706;2023-10-09T10:25:42;91870.09;;;15.11;76.84
3464;BME280;3551;41.578;24.706;2023-10-09T10:28:19;91874.16;;;15.26;76.90
3464;BME280;3551;41.578;24.706;2023-10-09T10:31:01;91844.59;;;15.19;75.90
3464;BME280;3551;41.578;24.706;2023-10-09T10:34:03;91866.34;;;15.35;75.18
3464;BME280;3551;41.578;24.706;2023-10-09T10:36:34;91833.66;;;14.99;76.29
3464;BME280;3551;41.578;24.706;2023-10-09T10:39:01;91861.59;;;15.50;74.78
3464;BME280;3551;41.578;24.706;2023-10-09T10:41:33;91865.44;;;15.49;75.00
3464;BME280;3551;41.578;24.706;2023-10-09T10:44:04;91864.47;;;15.62;75.49
3464;BME280;3551;41.578;24.706;2023-10-09T10:46:45;91861.63;;;16.00;73.53
3464;BME280;3551;41.578;24.706;2023-10-09T10:49:18;91855.75;;;16.31;71.03
3464;BME280;3551;41.578;24.706;2023-10-09T10:51:49;91855.13;;;15.97;72.00
3464;BME280;3551;41.578;24.706;2023-10-09T10:54:27;91856.50;;;16.32;72.28
3464;BME280;3551;41.578;24.706;2023-10-09T10:57:15;91861.25;;;16.01;70.44
3464;BME280;3551;41.578;24.706;2023-10-09T10:59:54;91845.78;;;15.79;71.15
3464;BME280;3551;41.578;24.706;2023-10-09T11:02:38;91846.38;;;15.63;71.66
3464;BME280;3551;41.578;24.706;2023-10-09T11:05:07;91828.28;;;15.30;72.65
3464;BME280;3551;41.578;24.706;2023-10-09T11:07:41;91845.59;;;15.32;73.54
3464;BME280;3551;41.578;24.706;2023-10-09T11:10:09;91844.78;;;15.35;73.08
3464;BME280;3551;41.578;24.706;2023-10-09T11:12:45;91842.34;;;15.14;73.10
3464;BME280;3551;41.578;24.706;2023-10-09T11:15:33;91836.59;;;15.12;73.14
3464;BME280;3551;41.578;24.706;2023-10-09T11:18:12;91829.44;;;15.32;73.71
3464;BME280;3551;41.578;24.706;2023-10-09T11:20:48;91837.53;;;15.32;72.23
3464;BME280;3551;41.578;24.706;2023-10-09T11:23:23;91829.69;;;15.11;73.23
3464;BME280;3551;41.578;24.706;2023-10-09T11:26:03;91822.44;;;15.04;73.73
3464;BME280;3551;41.578;24.706;2023-10-09T11:28:46;91821.34;;;15.32;72.24
3464;BME280;3551;41.578;24.706;2023-10-09T11:31:22;91813.56;;;15.38;71.77
3464;BME280;3551;41.578;24.706;2023-10-09T11:33:52;91814.81;;;15.30;72.09
3464;BME280;3551;41.578;24.706;2023-10-09T11:36:20;91816.97;;;15.42;72.10
3464;BME280;3551;41.578;24.706;2023-10-09T11:38:58;91822.19;;;15.56;70.67
3464;BME280;3551;41.578;24.706;2023-10-09T11:41:39;91815.66;;;15.84;71.12
3464;BME280;3551;41.578;24.706;2023-10-09T11:44:09;91795.28;;;15.79;70.24
3464;BME280;3551;41.578;24.706;2023-10-09T11:46:57;91817.22;;;16.08;68.80
3464;BME280;3551;41.578;24.706;2023-10-09T11:49:23;91812.44;;;15.92;69.02
3464;BME280;3551;41.578;24.706;2023-10-09T11:52:07;91817.31;;;16.24;68.98
3464;BME280;3551;41.578;24.706;2023-10-09T11:54:52;91769.56;;;15.98;68.66
3464;BME280;3551;41.578;24.706;2023-10-09T11:57:23;91802.50;;;15.86;68.81
3464;BME280;3551;41.578;24.706;2023-10-09T11:59:56;91800.28;;;15.54;70.45
3464;BME280;3551;41.578;24.706;2023-10-09T12:02:23;91804.84;;;15.57;70.46
3464;BME280;3551;41.578;24.706;2023-10-09T12:04:50;91791.84;;;15.79;69.93
3464;BME280;3551;41.578;24.706;2023-10-09T12:07:19;91792.47;;;15.86;69.53
3464;BME280;3551;41.578;24.706;2023-10-09T12:09:47;91799.38;;;16.14;68.89
3464;BME280;3551;41.578;24.706;2023-10-09T12:12:16;91802.66;;;16.25;69.64
3464;BME280;3551;41.578;24.706;2023-10-09T12:14:44;91753.81;;;16.19;67.52
3464;BME280;3551;41.578;24.706;2023-10-09T12:17:11;91777.59;;;16.71;67.37
3464;BME280;3551;41.578;24.706;2023-10-09T12:19:39;91765.44;;;16.59;67.48
3464;BME280;3551;41.578;24.706;2023-10-09T12:22:07;91773.78;;;16.68;68.28
3464;BME280;3551;41.578;24.706;2023-10-09T12:24:36;91768.78;;;16.67;67.57
3464;BME280;3551;41.578;24.706;2023-10-09T12:27:09;91768.38;;;16.68;66.40
3464;BME280;3551;41.578;24.706;2023-10-09T12:29:38;91775.50;;;16.78;66.00
3464;BME280;3551;41.578;24.706;2023-10-09T12:32:10;91760.94;;;16.72;66.00
3464;BME280;3551;41.578;24.706;2023-10-09T12:34:37;91776.19;;;16.63;67.33
3464;BME280;3551;41.578;24.706;2023-10-09T12:37:04;91765.13;;;16.77;65.86
3464;BME280;3551;41.578;24.706;2023-10-09T12:39:31;91742.34;;;16.98;66.39
3464;BME280;3551;41.578;24.706;2023-10-09T12:41:59;91740.50;;;17.11;66.24
3464;BME280;3551;41.578;24.706;2023-10-09T12:44:32;91730.00;;;16.97;64.94
3464;BME280;3551;41.578;24.706;2023-10-09T12:47:05;91734.19;;;17.17;64.86
3464;BME280;3551;41.578;24.706;2023-10-09T12:49:37;91735.47;;;17.13;64.93
3464;BME280;3551;41.578;24.706;2023-10-09T12:52:09;91741.69;;;16.70;64.88
3464;BME280;3551;41.578;24.706;2023-10-09T12:54:42;91746.28;;;16.54;65.67
3464;BME280;3551;41.578;24.706;2023-10-09T12:57:11;91757.25;;;16.43;66.04
3464;BME280;3551;41.578;24.706;2023-10-09T12:59:40;91763.69;;;16.26;67.46
3464;BME280;3551;41.578;24.706;2023-10-09T13:02:13;91761.41;;;16.24;67.02
3464;BME280;3551;41.578;24.706;2023-10-09T13:04:53;91712.63;;;15.42;68.70
3464;BME280;3551;41.578;24.706;2023-10-09T13:07:20;91763.56;;;15.63;69.79
3464;BME280;3551;41.578;24.706;2023-10-09T13:09:47;91760.09;;;15.63;69.53
3464;BME280;3551;41.578;24.706;2023-10-09T13:12:34;91760.56;;;15.58;70.39
3464;BME280;3551;41.578;24.706;2023-10-09T13:15:05;91737.97;;;15.48;70.39
3464;BME280;3551;41.578;24.706;2023-10-09T13:17:36;91753.94;;;15.62;70.02
3464;BME280;3551;41.578;24.706;2023-10-09T13:20:03;91756.34;;;15.57;69.48
3464;BME280;3551;41.578;24.706;2023-10-09T13:22:38;91748.59;;;15.59;69.48
3464;BME280;3551;41.578;24.706;2023-10-09T13:25:07;91750.13;;;15.30;69.66
3464;BME280;3551;41.578;24.706;2023-10-09T13:27:41;91750.59;;;15.25;70.25
3464;BME280;3551;41.578;24.706;2023-10-09T13:30:09;91745.97;;;15.25;70.42
3464;BME280;3551;41.578;24.706;2023-10-09T13:32:49;91743.44;;;15.14;70.48
3464;BME280;3551;41.578;24.706;2023-10-09T13:35:17;91754.06;;;15.25;70.57
3464;BME280;3551;41.578;24.706;2023-10-09T13:37:44;91726.47;;;14.87;70.77
3464;BME280;3551;41.578;24.706;2023-10-09T13:40:22;91736.66;;;15.03;71.26
3464;BME280;3551;41.578;24.706;2023-10-09T13:43:19;91740.22;;;14.96;71.45
3464;BME280;3551;41.578;24.706;2023-10-09T13:46:01;91737.81;;;15.02;71.43
3464;BME280;3551;41.578;24.706;2023-10-09T13:48:47;91738.22;;;15.00;70.71
3464;BME280;3551;41.578;24.706;2023-10-09T13:51:18;91710.13;;;14.71;71.25
3464;BME280;3551;41.578;24.706;2023-10-09T13:53:59;91742.09;;;14.99;71.18
3464;BME280;3551;41.578;24.706;2023-10-09T13:56:26;91736.22;;;15.08;70.94
3464;BME280;3551;41.578;24.706;2023-10-09T13:58:53;91717.88;;;14.65;71.45
3464;BME280;3551;41.578;24.706;2023-10-09T14:01:21;91732.56;;;14.61;72.22